createdAt,value
2017-09-09T00:00:33.803Z,0
2017-09-09T00:01:14.248Z,0
2017-09-09T00:01:54.702Z,0
2017-09-09T00:02:35.149Z,0
2017-09-09T00:03:15.600Z,0
2017-09-09T00:03:56.064Z,0
2017-09-09T00:04:36.517Z,0
2017-09-09T00:07:09.595Z,0
2017-09-09T00:07:50.049Z,0
2017-09-09T00:08:30.510Z,0
2017-09-09T00:09:10.959Z,0
2017-09-09T00:09:51.406Z,0
2017-09-09T00:10:31.857Z,0
2017-09-09T00:11:12.326Z,0
2017-09-09T00:11:52.745Z,0
2017-09-09T00:12:33.199Z,0
2017-09-09T00:13:13.646Z,0
2017-09-09T00:13:54.100Z,0
2017-09-09T00:14:34.552Z,0
2017-09-09T00:15:15.009Z,0
2017-09-09T00:15:55.462Z,0
2017-09-09T00:16:35.916Z,0
2017-09-09T00:17:16.369Z,0
2017-09-09T00:17:56.829Z,0
2017-09-09T00:18:37.285Z,0
2017-09-09T00:19:17.735Z,0
2017-09-09T00:19:58.187Z,0
2017-09-09T00:20:38.668Z,0
2017-09-09T00:21:19.130Z,0
2017-09-09T00:21:59.627Z,0
2017-09-09T00:22:40.041Z,0
2017-09-09T00:23:20.534Z,0
2017-09-09T00:24:00.995Z,0
2017-09-09T00:24:41.508Z,0
2017-09-09T00:25:21.940Z,0
2017-09-09T00:27:39.908Z,0
2017-09-09T00:28:20.360Z,0
2017-09-09T00:29:00.813Z,0
2017-09-09T00:29:41.262Z,0
2017-09-09T00:30:21.719Z,0
2017-09-09T00:31:02.179Z,0
2017-09-09T00:31:42.627Z,0
2017-09-09T00:32:23.065Z,0
2017-09-09T00:33:03.527Z,0
2017-09-09T00:33:43.994Z,0
2017-09-09T00:34:24.447Z,0
2017-09-09T00:35:04.900Z,0
2017-09-09T00:35:45.358Z,0
2017-09-09T00:36:25.811Z,0
2017-09-09T00:37:06.307Z,0
2017-09-09T00:37:46.766Z,0
2017-09-09T00:38:27.222Z,0
2017-09-09T00:39:07.661Z,0
2017-09-09T00:39:48.111Z,0
2017-09-09T00:40:28.575Z,0
2017-09-09T00:41:09.028Z,0
2017-09-09T00:41:49.477Z,0
2017-09-09T00:42:29.924Z,0
2017-09-09T00:43:10.382Z,0
2017-09-09T00:43:50.849Z,0
2017-09-09T00:44:31.299Z,0
2017-09-09T00:45:11.758Z,0
2017-09-09T00:45:52.204Z,0
2017-09-09T00:46:32.657Z,0
2017-09-09T00:47:13.112Z,0
2017-09-09T00:47:53.577Z,0
2017-09-09T00:48:34.033Z,0
2017-09-09T00:49:14.491Z,0
2017-09-09T00:49:54.941Z,0
2017-09-09T00:50:35.398Z,0
2017-09-09T00:51:15.923Z,0
2017-09-09T00:51:56.372Z,0
2017-09-09T00:52:36.814Z,0
2017-09-09T00:53:17.265Z,0
2017-09-09T00:53:57.730Z,0
2017-09-09T00:54:38.182Z,0
2017-09-09T00:55:18.635Z,0
2017-09-09T00:55:59.095Z,0
2017-09-09T00:56:39.547Z,0
2017-09-09T00:57:20.001Z,0
2017-09-09T00:58:00.452Z,0
2017-09-09T00:58:40.918Z,0
2017-09-09T00:59:21.371Z,0
2017-09-09T01:00:01.822Z,0
2017-09-09T01:00:42.283Z,0
2017-09-09T01:01:22.741Z,0
2017-09-09T01:02:03.193Z,0
2017-09-09T01:02:43.644Z,0
2017-09-09T01:03:24.134Z,0
2017-09-09T01:04:04.641Z,0
2017-09-09T01:04:45.103Z,0
2017-09-09T01:05:25.548Z,0
2017-09-09T01:06:06.018Z,0
2017-09-09T01:06:46.474Z,0
2017-09-09T01:07:26.934Z,0
2017-09-09T01:08:07.358Z,0
2017-09-09T01:08:47.809Z,0
2017-09-09T01:09:28.259Z,0
2017-09-09T01:10:08.774Z,0
2017-09-09T01:10:49.216Z,0
2017-09-09T01:11:29.667Z,0
2017-09-09T01:12:10.123Z,0
2017-09-09T01:12:50.577Z,0
2017-09-09T01:13:31.029Z,0
2017-09-09T01:14:11.482Z,0
2017-09-09T01:14:51.932Z,0
2017-09-09T01:15:32.387Z,0
2017-09-09T01:16:12.842Z,0
2017-09-09T01:16:53.302Z,0
2017-09-09T01:17:33.755Z,0
2017-09-09T01:18:14.208Z,0
2017-09-09T01:18:54.661Z,0
2017-09-09T01:19:35.120Z,0
2017-09-09T01:20:15.575Z,0
2017-09-09T01:20:56.030Z,0
2017-09-09T01:21:36.487Z,0
2017-09-09T01:22:16.930Z,0
2017-09-09T01:22:57.389Z,0
2017-09-09T01:23:37.848Z,0
2017-09-09T01:24:18.302Z,0
2017-09-09T01:24:58.753Z,0
2017-09-09T01:25:39.210Z,0
2017-09-09T01:26:19.672Z,0
2017-09-09T01:27:00.122Z,0
2017-09-09T01:27:40.606Z,0
2017-09-09T01:28:21.031Z,0
2017-09-09T01:29:01.480Z,0
2017-09-09T01:29:41.934Z,0
2017-09-09T01:30:22.392Z,0
2017-09-09T01:31:02.846Z,0
2017-09-09T01:31:43.300Z,0
2017-09-09T01:32:23.752Z,0
2017-09-09T01:33:04.206Z,0
2017-09-09T01:33:44.663Z,0
2017-09-09T01:34:25.122Z,0
2017-09-09T01:35:05.570Z,0
2017-09-09T01:35:46.028Z,0
2017-09-09T01:36:26.479Z,0
2017-09-09T01:37:06.935Z,0
2017-09-09T01:37:47.396Z,0
2017-09-09T01:38:27.849Z,0
2017-09-09T01:39:08.305Z,0
2017-09-09T01:39:48.762Z,0
2017-09-09T01:40:29.212Z,0
2017-09-09T01:41:09.665Z,0
2017-09-09T01:41:50.123Z,0
2017-09-09T01:42:30.574Z,0
2017-09-09T01:43:11.021Z,0
2017-09-09T01:43:51.476Z,0
2017-09-09T01:44:31.935Z,0
2017-09-09T01:45:12.396Z,0
2017-09-09T01:45:52.854Z,0
2017-09-09T01:46:33.306Z,0
2017-09-09T01:47:13.763Z,0
2017-09-09T01:47:54.208Z,0
2017-09-09T01:48:34.666Z,0
2017-09-09T01:49:15.130Z,0
2017-09-09T01:49:55.582Z,0
2017-09-09T01:50:36.118Z,0
2017-09-09T01:51:16.574Z,0
2017-09-09T01:51:57.028Z,0
2017-09-09T01:52:37.486Z,0
2017-09-09T01:53:17.940Z,0
2017-09-09T01:53:58.392Z,0
2017-09-09T01:54:38.846Z,0
2017-09-09T01:55:19.306Z,0
2017-09-09T01:55:59.784Z,0
2017-09-09T01:56:40.350Z,0
2017-09-09T01:57:20.819Z,0
2017-09-09T01:58:01.269Z,0
2017-09-09T01:58:41.725Z,0
2017-09-09T01:59:22.174Z,0
2017-09-09T02:00:02.627Z,0
2017-09-09T02:00:43.090Z,0
2017-09-09T02:01:23.640Z,0
2017-09-09T02:02:04.100Z,0
2017-09-09T02:02:44.554Z,0
2017-09-09T02:03:25.013Z,0
2017-09-09T02:04:05.476Z,0
2017-09-09T02:04:45.929Z,0
2017-09-09T02:05:26.391Z,0
2017-09-09T02:06:06.930Z,0
2017-09-09T02:06:47.387Z,0
2017-09-09T02:07:27.845Z,0
2017-09-09T02:08:08.417Z,0
2017-09-09T02:08:48.866Z,0
2017-09-09T02:09:29.325Z,0
2017-09-09T02:10:09.783Z,0
2017-09-09T02:10:50.242Z,0
2017-09-09T02:11:30.722Z,0
2017-09-09T02:12:11.149Z,0
2017-09-09T02:12:51.602Z,0
2017-09-09T02:13:32.058Z,0
2017-09-09T02:14:12.510Z,0
2017-09-09T02:14:52.970Z,0
2017-09-09T02:15:33.423Z,0
2017-09-09T02:16:13.873Z,0
2017-09-09T02:16:54.323Z,0
2017-09-09T02:17:34.779Z,0
2017-09-09T02:18:15.235Z,0
2017-09-09T02:18:55.686Z,0
2017-09-09T02:19:36.142Z,0
2017-09-09T02:20:16.590Z,0
2017-09-09T02:20:57.047Z,0
2017-09-09T02:21:37.502Z,0
2017-09-09T02:22:17.958Z,0
2017-09-09T02:22:58.420Z,0
2017-09-09T02:23:38.873Z,0
2017-09-09T02:24:19.322Z,0
2017-09-09T02:24:59.780Z,0
2017-09-09T02:25:40.273Z,0
2017-09-09T02:26:20.736Z,0
2017-09-09T02:27:01.196Z,0
2017-09-09T02:27:41.649Z,0
2017-09-09T02:28:22.097Z,0
2017-09-09T02:29:02.547Z,0
2017-09-09T02:29:43.002Z,0
2017-09-09T02:30:23.457Z,0
2017-09-09T02:31:03.914Z,0
2017-09-09T02:31:44.362Z,0
2017-09-09T02:32:24.815Z,0
2017-09-09T02:33:05.279Z,0
2017-09-09T02:33:45.742Z,0
2017-09-09T02:34:26.184Z,0
2017-09-09T02:35:06.643Z,0
2017-09-09T02:35:47.094Z,0
2017-09-09T02:36:27.548Z,0
2017-09-09T02:37:08.001Z,0
2017-09-09T02:37:48.456Z,0
2017-09-09T02:38:28.900Z,0
2017-09-09T02:39:09.358Z,0
2017-09-09T02:39:49.818Z,0
2017-09-09T02:40:30.269Z,0
2017-09-09T02:41:10.721Z,0
2017-09-09T02:41:51.176Z,0
2017-09-09T02:42:31.624Z,0
2017-09-09T02:43:12.089Z,0
2017-09-09T02:43:52.547Z,0
2017-09-09T02:44:33.001Z,0
2017-09-09T02:45:13.454Z,0
2017-09-09T02:45:53.909Z,0
2017-09-09T02:46:34.364Z,0
2017-09-09T02:47:14.816Z,0
2017-09-09T02:47:55.271Z,0
2017-09-09T02:48:35.826Z,0
2017-09-09T02:49:16.285Z,0
2017-09-09T02:49:56.740Z,0
2017-09-09T02:50:37.193Z,0
2017-09-09T02:51:17.647Z,0
2017-09-09T02:51:58.101Z,0
2017-09-09T02:52:38.555Z,0
2017-09-09T02:53:19.005Z,0
2017-09-09T02:53:59.462Z,0
2017-09-09T02:54:39.896Z,0
2017-09-09T02:55:20.334Z,0
2017-09-09T02:56:00.786Z,0
2017-09-09T02:56:41.239Z,0
2017-09-09T02:57:21.699Z,0
2017-09-09T02:58:02.152Z,0
2017-09-09T02:58:42.607Z,0
2017-09-09T02:59:23.063Z,0
2017-09-09T03:00:03.534Z,0
2017-09-09T03:00:43.998Z,0
2017-09-09T03:01:24.447Z,0
2017-09-09T03:02:04.921Z,0
2017-09-09T03:02:45.379Z,0
2017-09-09T03:03:25.835Z,0
2017-09-09T03:04:06.296Z,0
2017-09-09T03:04:46.735Z,0
2017-09-09T03:05:27.193Z,0
2017-09-09T03:06:07.644Z,0
2017-09-09T03:06:48.088Z,0
2017-09-09T03:07:28.535Z,0
2017-09-09T03:08:08.984Z,0
2017-09-09T03:08:49.434Z,0
2017-09-09T03:09:29.883Z,0
2017-09-09T03:10:10.362Z,0
2017-09-09T03:10:50.825Z,0
2017-09-09T03:11:31.276Z,0
2017-09-09T03:12:11.732Z,0
2017-09-09T03:12:52.189Z,0
2017-09-09T03:13:32.644Z,0
2017-09-09T03:14:13.097Z,0
2017-09-09T03:14:53.551Z,0
2017-09-09T03:15:33.990Z,0
2017-09-09T03:16:14.448Z,0
2017-09-09T03:16:54.905Z,0
2017-09-09T03:17:35.356Z,0
2017-09-09T03:18:15.803Z,0
2017-09-09T03:18:56.276Z,0
2017-09-09T03:19:36.729Z,0
2017-09-09T03:20:17.190Z,0
2017-09-09T03:20:57.648Z,0
2017-09-09T03:21:38.106Z,0
2017-09-09T03:22:18.653Z,0
2017-09-09T03:22:59.104Z,0
2017-09-09T03:23:39.564Z,0
2017-09-09T03:24:20.104Z,0
2017-09-09T03:25:00.564Z,0
2017-09-09T03:25:41.019Z,0
2017-09-09T03:26:21.475Z,0
2017-09-09T03:27:01.998Z,0
2017-09-09T03:27:42.467Z,0
2017-09-09T03:28:22.922Z,0
2017-09-09T03:29:03.518Z,0
2017-09-09T03:29:43.993Z,0
2017-09-09T03:30:24.450Z,0
2017-09-09T03:31:05.127Z,0
2017-09-09T03:31:45.588Z,0
2017-09-09T03:32:26.033Z,0
2017-09-09T03:33:06.489Z,0
2017-09-09T03:33:46.946Z,0
2017-09-09T03:34:27.411Z,0
2017-09-09T03:35:07.871Z,0
2017-09-09T03:35:48.327Z,0
2017-09-09T03:36:28.822Z,0
2017-09-09T03:37:09.278Z,0
2017-09-09T03:37:49.734Z,0
2017-09-09T03:38:30.187Z,0
2017-09-09T03:39:10.651Z,0
2017-09-09T03:39:51.106Z,0
2017-09-09T03:40:31.560Z,0
2017-09-09T03:41:12.025Z,0
2017-09-09T03:41:52.465Z,0
2017-09-09T03:42:32.921Z,0
2017-09-09T03:43:13.382Z,0
2017-09-09T03:43:53.832Z,0
2017-09-09T03:44:34.282Z,0
2017-09-09T03:45:14.762Z,0
2017-09-09T03:45:55.200Z,0
2017-09-09T03:46:35.653Z,0
2017-09-09T03:47:16.093Z,0
2017-09-09T03:47:56.542Z,0
2017-09-09T03:48:37.029Z,0
2017-09-09T03:49:17.483Z,0
2017-09-09T03:49:57.944Z,0
2017-09-09T03:50:38.404Z,0
2017-09-09T03:51:18.864Z,0
2017-09-09T03:51:59.321Z,0
2017-09-09T03:52:39.780Z,0
2017-09-09T03:53:20.234Z,0
2017-09-09T03:54:00.686Z,0
2017-09-09T03:54:41.142Z,0
2017-09-09T03:55:21.627Z,0
2017-09-09T03:56:02.072Z,0
2017-09-09T03:56:42.542Z,0
2017-09-09T03:57:22.993Z,0
2017-09-09T03:58:03.446Z,0
2017-09-09T03:58:43.906Z,0
2017-09-09T03:59:24.365Z,0
2017-09-09T04:00:04.818Z,0
2017-09-09T04:00:45.284Z,0
2017-09-09T04:01:25.741Z,0
2017-09-09T04:02:06.196Z,0
2017-09-09T04:02:46.645Z,0
2017-09-09T04:03:27.103Z,0
2017-09-09T04:04:07.558Z,0
2017-09-09T04:04:48.014Z,0
2017-09-09T04:05:28.469Z,0
2017-09-09T04:06:08.918Z,0
2017-09-09T04:06:49.376Z,0
2017-09-09T04:07:29.829Z,0
2017-09-09T04:08:10.409Z,0
2017-09-09T04:08:50.864Z,0
2017-09-09T04:09:31.317Z,0
2017-09-09T04:10:11.777Z,0
2017-09-09T04:10:52.239Z,0
2017-09-09T04:11:32.686Z,0
2017-09-09T04:12:13.150Z,0
2017-09-09T04:12:53.607Z,0
2017-09-09T04:13:34.068Z,0
2017-09-09T04:14:14.528Z,0
2017-09-09T04:14:54.987Z,0
2017-09-09T04:15:35.440Z,0
2017-09-09T04:16:15.897Z,0
2017-09-09T04:16:56.352Z,0
2017-09-09T04:17:36.814Z,0
2017-09-09T04:18:17.301Z,0
2017-09-09T04:18:57.740Z,0
2017-09-09T04:19:38.179Z,0
2017-09-09T04:20:18.629Z,0
2017-09-09T04:20:59.087Z,0
2017-09-09T04:21:39.546Z,0
2017-09-09T04:22:20.003Z,0
2017-09-09T04:23:00.460Z,0
2017-09-09T04:23:40.919Z,0
2017-09-09T04:24:21.369Z,0
2017-09-09T04:25:01.848Z,0
2017-09-09T04:25:42.278Z,0
2017-09-09T04:26:22.729Z,0
2017-09-09T04:27:03.178Z,0
2017-09-09T04:27:43.634Z,0
2017-09-09T04:28:24.087Z,0
2017-09-09T04:29:04.546Z,0
2017-09-09T04:29:45.014Z,0
2017-09-09T04:30:25.465Z,0
2017-09-09T04:31:05.922Z,0
2017-09-09T04:31:46.411Z,0
2017-09-09T04:32:26.837Z,0
2017-09-09T04:33:07.295Z,0
2017-09-09T04:33:47.754Z,0
2017-09-09T04:34:28.208Z,0
2017-09-09T04:35:08.666Z,0
2017-09-09T04:35:49.121Z,0
2017-09-09T04:36:29.575Z,0
2017-09-09T04:37:10.038Z,0
2017-09-09T04:37:50.495Z,0
2017-09-09T04:38:30.950Z,0
2017-09-09T04:39:11.410Z,0
2017-09-09T04:39:51.871Z,0
2017-09-09T04:40:32.319Z,0
2017-09-09T04:41:12.776Z,0
2017-09-09T04:41:53.226Z,0
2017-09-09T04:42:33.689Z,0
2017-09-09T04:43:14.135Z,0
2017-09-09T04:43:54.588Z,0
2017-09-09T04:44:35.041Z,0
2017-09-09T04:45:15.499Z,0
2017-09-09T04:45:55.953Z,0
2017-09-09T04:46:36.437Z,0
2017-09-09T04:47:16.894Z,0
2017-09-09T04:47:57.341Z,0
2017-09-09T04:48:37.780Z,0
2017-09-09T04:49:18.234Z,0
2017-09-09T04:49:58.692Z,0
2017-09-09T04:50:39.145Z,0
2017-09-09T04:51:19.598Z,0
2017-09-09T04:52:00.047Z,0
2017-09-09T04:52:40.502Z,0
2017-09-09T04:53:20.958Z,0
2017-09-09T04:54:01.413Z,0
2017-09-09T04:54:41.874Z,0
2017-09-09T04:55:22.326Z,0
2017-09-09T04:56:02.774Z,0
2017-09-09T04:56:43.233Z,0
2017-09-09T04:57:23.693Z,0
2017-09-09T04:58:04.142Z,0
2017-09-09T04:58:44.598Z,0
2017-09-09T04:59:25.057Z,0
2017-09-09T05:00:05.508Z,0
2017-09-09T05:00:45.954Z,0
2017-09-09T05:01:26.415Z,0
2017-09-09T05:02:06.867Z,0
2017-09-09T05:02:47.323Z,0
2017-09-09T05:03:27.776Z,4
2017-09-09T05:04:08.230Z,4
2017-09-09T05:04:48.680Z,4
2017-09-09T05:05:29.144Z,4
2017-09-09T05:06:09.601Z,4
2017-09-09T05:06:50.062Z,4
2017-09-09T05:07:30.521Z,4
2017-09-09T05:10:03.625Z,4
2017-09-09T05:10:44.050Z,4
2017-09-09T05:11:24.496Z,4
2017-09-09T05:12:04.954Z,4
2017-09-09T05:12:45.409Z,4
2017-09-09T05:13:25.863Z,4
2017-09-09T05:14:06.317Z,0
2017-09-09T05:14:46.776Z,4
2017-09-09T05:15:27.233Z,4
2017-09-09T05:16:07.690Z,4
2017-09-09T05:16:48.138Z,8
2017-09-09T05:17:28.590Z,8
2017-09-09T05:18:09.046Z,8
2017-09-09T05:18:49.502Z,8
2017-09-09T05:19:29.963Z,8
2017-09-09T05:20:10.412Z,4
2017-09-09T05:20:50.865Z,4
2017-09-09T05:21:31.321Z,4
2017-09-09T05:22:11.769Z,8
2017-09-09T05:22:52.223Z,8
2017-09-09T05:23:32.680Z,8
2017-09-09T05:24:13.130Z,8
2017-09-09T05:24:53.585Z,8
2017-09-09T05:25:34.046Z,8
2017-09-09T05:26:14.494Z,8
2017-09-09T05:26:54.951Z,8
2017-09-09T05:27:35.412Z,8
2017-09-09T05:28:15.865Z,8
2017-09-09T05:28:56.320Z,8
2017-09-09T05:29:36.775Z,12
2017-09-09T05:30:17.207Z,12
2017-09-09T05:30:57.667Z,12
2017-09-09T05:31:38.112Z,12
2017-09-09T05:32:18.569Z,12
2017-09-09T05:32:59.025Z,12
2017-09-09T05:33:39.477Z,16
2017-09-09T05:34:19.935Z,16
2017-09-09T05:35:00.389Z,16
2017-09-09T05:35:40.844Z,16
2017-09-09T05:36:21.296Z,16
2017-09-09T05:37:01.745Z,16
2017-09-09T05:37:42.212Z,16
2017-09-09T05:38:22.642Z,12
2017-09-09T05:39:03.237Z,12
2017-09-09T05:39:43.634Z,12
2017-09-09T05:40:24.081Z,16
2017-09-09T05:41:04.533Z,12
2017-09-09T05:41:44.990Z,12
2017-09-09T05:42:25.446Z,12
2017-09-09T05:43:05.901Z,12
2017-09-09T05:43:46.356Z,12
2017-09-09T05:44:26.815Z,12
2017-09-09T05:45:07.262Z,12
2017-09-09T05:45:47.717Z,12
2017-09-09T05:46:28.160Z,12
2017-09-09T05:47:08.621Z,16
2017-09-09T05:47:49.078Z,20
2017-09-09T05:48:29.532Z,20
2017-09-09T05:49:09.993Z,24
2017-09-09T05:49:50.472Z,24
2017-09-09T05:50:30.895Z,24
2017-09-09T05:51:11.349Z,24
2017-09-09T05:51:51.808Z,24
2017-09-09T05:52:32.266Z,20
2017-09-09T05:53:12.732Z,16
2017-09-09T05:53:53.189Z,16
2017-09-09T05:54:33.634Z,16
2017-09-09T05:55:14.085Z,16
2017-09-09T05:55:54.539Z,16
2017-09-09T05:56:34.997Z,16
2017-09-09T05:57:15.456Z,16
2017-09-09T05:57:55.903Z,16
2017-09-09T05:58:36.358Z,12
2017-09-09T05:59:16.884Z,16
2017-09-09T05:59:57.338Z,12
2017-09-09T06:00:37.799Z,16
2017-09-09T06:01:18.359Z,20
2017-09-09T06:01:58.809Z,20
2017-09-09T06:02:39.263Z,24
2017-09-09T06:03:19.723Z,20
2017-09-09T06:04:00.183Z,20
2017-09-09T06:04:40.734Z,28
2017-09-09T06:05:21.189Z,24
2017-09-09T06:06:01.745Z,28
2017-09-09T06:06:42.211Z,28
2017-09-09T06:07:22.662Z,28
2017-09-09T06:08:03.111Z,24
2017-09-09T06:08:43.561Z,28
2017-09-09T06:09:24.021Z,28
2017-09-09T06:10:04.484Z,28
2017-09-09T06:10:44.935Z,28
2017-09-09T06:11:25.390Z,32
2017-09-09T06:12:05.840Z,32
2017-09-09T06:12:46.297Z,36
2017-09-09T06:13:26.751Z,32
2017-09-09T06:14:07.207Z,36
2017-09-09T06:14:47.660Z,40
2017-09-09T06:15:28.097Z,44
2017-09-09T06:16:08.543Z,48
2017-09-09T06:16:48.976Z,48
2017-09-09T06:17:29.426Z,44
2017-09-09T06:18:09.871Z,36
2017-09-09T06:18:50.325Z,32
2017-09-09T06:19:30.784Z,40
2017-09-09T06:20:11.238Z,36
2017-09-09T06:20:51.691Z,36
2017-09-09T06:21:32.146Z,36
2017-09-09T06:22:12.598Z,36
2017-09-09T06:22:53.047Z,36
2017-09-09T06:23:33.512Z,32
2017-09-09T06:24:13.983Z,32
2017-09-09T06:24:54.424Z,32
2017-09-09T06:25:34.870Z,32
2017-09-09T06:26:15.326Z,32
2017-09-09T06:26:55.778Z,36
2017-09-09T06:27:36.232Z,36
2017-09-09T06:28:16.696Z,40
2017-09-09T06:28:57.138Z,40
2017-09-09T06:29:37.591Z,40
2017-09-09T06:30:18.042Z,40
2017-09-09T06:30:58.493Z,36
2017-09-09T06:31:38.945Z,40
2017-09-09T06:32:19.390Z,44
2017-09-09T06:32:59.832Z,44
2017-09-09T06:33:40.290Z,52
2017-09-09T06:34:20.740Z,52
2017-09-09T06:35:01.203Z,56
2017-09-09T06:35:41.710Z,60
2017-09-09T06:36:22.167Z,60
2017-09-09T06:37:02.631Z,64
2017-09-09T06:37:43.074Z,68
2017-09-09T06:38:23.528Z,68
2017-09-09T06:39:03.956Z,72
2017-09-09T06:39:44.411Z,76
2017-09-09T06:40:24.875Z,80
2017-09-09T06:41:05.333Z,84
2017-09-09T06:41:45.781Z,92
2017-09-09T06:42:26.236Z,96
2017-09-09T06:43:06.678Z,100
2017-09-09T06:43:47.136Z,104
2017-09-09T06:44:27.586Z,104
2017-09-09T06:45:08.059Z,104
2017-09-09T06:45:48.512Z,104
2017-09-09T06:46:28.967Z,108
2017-09-09T06:47:09.422Z,112
2017-09-09T06:47:49.895Z,112
2017-09-09T06:48:30.333Z,116
2017-09-09T06:49:10.776Z,124
2017-09-09T06:49:51.242Z,136
2017-09-09T06:50:31.674Z,144
2017-09-09T06:51:12.125Z,152
2017-09-09T06:51:52.578Z,160
2017-09-09T06:52:33.039Z,168
2017-09-09T06:53:13.485Z,172
2017-09-09T06:53:53.943Z,172
2017-09-09T06:54:34.394Z,168
2017-09-09T06:55:14.845Z,156
2017-09-09T06:55:55.307Z,148
2017-09-09T06:56:35.736Z,148
2017-09-09T06:57:16.187Z,144
2017-09-09T06:57:56.655Z,148
2017-09-09T06:58:37.127Z,156
2017-09-09T06:59:17.683Z,160
2017-09-09T06:59:58.138Z,160
2017-09-09T07:00:38.587Z,156
2017-09-09T07:01:19.064Z,148
2017-09-09T07:01:59.509Z,148
2017-09-09T07:02:39.963Z,152
2017-09-09T07:05:08.080Z,248
2017-09-09T07:05:48.527Z,300
2017-09-09T07:06:28.972Z,352
2017-09-09T07:07:09.424Z,392
2017-09-09T07:07:49.881Z,428
2017-09-09T07:08:30.336Z,452
2017-09-09T07:09:10.792Z,476
2017-09-09T07:09:51.252Z,484
2017-09-09T07:10:31.701Z,484
2017-09-09T07:11:12.147Z,472
2017-09-09T07:11:52.601Z,496
2017-09-09T07:12:33.057Z,508
2017-09-09T07:13:13.509Z,508
2017-09-09T07:13:53.973Z,508
2017-09-09T07:14:34.414Z,476
2017-09-09T07:15:14.868Z,400
2017-09-09T07:15:55.326Z,336
2017-09-09T07:16:35.778Z,276
2017-09-09T07:17:16.296Z,244
2017-09-09T07:17:56.748Z,256
2017-09-09T07:18:37.196Z,284
2017-09-09T07:19:17.642Z,304
2017-09-09T07:21:30.614Z,272
2017-09-09T07:24:03.781Z,396
2017-09-09T07:24:44.231Z,380
2017-09-09T07:25:24.686Z,344
2017-09-09T07:26:05.138Z,324
2017-09-09T07:26:45.595Z,308
2017-09-09T07:27:26.041Z,268
2017-09-09T07:28:06.492Z,276
2017-09-09T07:28:46.948Z,288
2017-09-09T07:29:27.494Z,296
2017-09-09T07:30:07.943Z,316
2017-09-09T07:30:48.386Z,332
2017-09-09T07:31:28.855Z,360
2017-09-09T07:32:09.312Z,372
2017-09-09T07:32:49.762Z,356
2017-09-09T07:33:30.219Z,412
2017-09-09T07:34:10.675Z,456
2017-09-09T07:34:51.123Z,444
2017-09-09T07:35:31.582Z,424
2017-09-09T07:36:12.031Z,404
2017-09-09T07:36:52.476Z,396
2017-09-09T07:37:32.931Z,376
2017-09-09T07:38:13.405Z,400
2017-09-09T07:38:53.838Z,396
2017-09-09T07:39:34.286Z,348
2017-09-09T07:40:14.738Z,336
2017-09-09T07:40:55.190Z,324
2017-09-09T07:41:35.647Z,320
2017-09-09T07:42:16.095Z,308
2017-09-09T07:42:56.547Z,292
2017-09-09T07:43:36.992Z,276
2017-09-09T07:44:17.444Z,272
2017-09-09T07:44:57.964Z,268
2017-09-09T07:45:38.388Z,276
2017-09-09T07:46:18.837Z,296
2017-09-09T07:46:59.292Z,320
2017-09-09T07:47:39.747Z,368
2017-09-09T07:48:20.304Z,436
2017-09-09T07:49:00.764Z,484
2017-09-09T07:49:41.228Z,516
2017-09-09T07:50:21.674Z,536
2017-09-09T07:51:02.318Z,508
2017-09-09T07:51:42.623Z,456
2017-09-09T07:54:01.523Z,372
2017-09-09T07:54:41.976Z,388
2017-09-09T07:55:22.422Z,404
2017-09-09T07:56:02.933Z,412
2017-09-09T07:56:43.367Z,392
2017-09-09T07:57:23.811Z,332
2017-09-09T07:58:04.262Z,292
2017-09-09T07:58:44.715Z,300
2017-09-09T07:59:25.153Z,316
2017-09-09T08:00:05.611Z,336
2017-09-09T08:00:46.054Z,332
2017-09-09T08:01:26.500Z,336
2017-09-09T08:02:06.966Z,352
2017-09-09T08:02:47.420Z,316
2017-09-09T08:03:27.875Z,292
2017-09-09T08:04:08.311Z,272
2017-09-09T08:04:48.767Z,272
2017-09-09T08:05:29.242Z,284
2017-09-09T08:06:09.692Z,268
2017-09-09T08:06:50.159Z,264
2017-09-09T08:07:30.645Z,284
2017-09-09T08:08:11.145Z,312
2017-09-09T08:08:51.632Z,360
2017-09-09T08:09:32.081Z,372
2017-09-09T08:10:12.530Z,360
2017-09-09T08:10:52.994Z,400
2017-09-09T08:11:33.420Z,384
2017-09-09T08:12:13.860Z,328
2017-09-09T08:12:54.325Z,300
2017-09-09T08:13:34.775Z,300
2017-09-09T08:14:15.237Z,332
2017-09-09T08:14:55.712Z,364
2017-09-09T08:15:36.205Z,388
2017-09-09T08:16:16.683Z,400
2017-09-09T08:16:57.106Z,408
2017-09-09T08:17:37.561Z,416
2017-09-09T08:18:18.051Z,440
2017-09-09T08:18:58.508Z,440
2017-09-09T08:19:38.954Z,436
2017-09-09T08:20:19.435Z,404
2017-09-09T08:20:59.896Z,360
2017-09-09T08:21:40.345Z,368
2017-09-09T08:22:20.795Z,368
2017-09-09T08:23:01.250Z,340
2017-09-09T08:23:41.702Z,360
2017-09-09T08:24:22.162Z,392
2017-09-09T08:25:02.631Z,424
2017-09-09T08:25:43.259Z,420
2017-09-09T08:26:23.575Z,400
2017-09-09T08:27:04.032Z,388
2017-09-09T08:27:44.755Z,372
2017-09-09T08:28:24.990Z,364
2017-09-09T08:29:05.447Z,356
2017-09-09T08:29:45.903Z,344
2017-09-09T08:30:26.351Z,356
2017-09-09T08:31:06.809Z,340
2017-09-09T08:31:47.262Z,316
2017-09-09T08:32:27.719Z,280
2017-09-09T08:33:08.172Z,288
2017-09-09T08:33:48.673Z,296
2017-09-09T08:34:29.118Z,300
2017-09-09T08:35:09.574Z,296
2017-09-09T08:35:50.025Z,296
2017-09-09T08:36:30.600Z,320
2017-09-09T08:37:10.914Z,348
2017-09-09T08:37:51.361Z,336
2017-09-09T08:38:31.938Z,348
2017-09-09T08:39:12.257Z,320
2017-09-09T08:39:52.701Z,288
2017-09-09T08:40:33.162Z,276
2017-09-09T08:41:13.609Z,292
2017-09-09T08:41:54.060Z,296
2017-09-09T08:42:34.511Z,296
2017-09-09T08:43:14.962Z,308
2017-09-09T08:43:55.405Z,320
2017-09-09T08:44:35.863Z,328
2017-09-09T08:45:16.320Z,356
2017-09-09T08:45:56.769Z,380
2017-09-09T08:46:37.230Z,384
2017-09-09T08:47:17.682Z,404
2017-09-09T08:47:58.130Z,452
2017-09-09T08:48:38.590Z,496
2017-09-09T08:49:19.041Z,524
2017-09-09T08:49:59.503Z,532
2017-09-09T08:50:39.966Z,540
2017-09-09T08:51:20.421Z,568
2017-09-09T08:52:00.882Z,544
2017-09-09T08:52:41.337Z,500
2017-09-09T08:53:21.786Z,468
2017-09-09T08:54:02.242Z,500
2017-09-09T08:54:42.702Z,476
2017-09-09T08:55:23.158Z,420
2017-09-09T08:56:03.619Z,372
2017-09-09T08:56:44.069Z,356
2017-09-09T08:57:24.547Z,396
2017-09-09T08:59:42.490Z,428
2017-09-09T09:00:22.937Z,384
2017-09-09T09:01:03.390Z,320
2017-09-09T09:01:43.851Z,292
2017-09-09T09:02:24.298Z,252
2017-09-09T09:03:04.749Z,252
2017-09-09T09:03:45.206Z,312
2017-09-09T09:04:25.663Z,348
2017-09-09T09:05:06.104Z,392
2017-09-09T09:05:46.549Z,420
2017-09-09T09:06:27.006Z,452
2017-09-09T09:07:07.446Z,460
2017-09-09T09:07:47.912Z,464
2017-09-09T09:08:28.350Z,464
2017-09-09T09:09:08.803Z,464
2017-09-09T09:09:49.259Z,452
2017-09-09T09:10:29.826Z,452
2017-09-09T09:12:47.611Z,440
2017-09-09T09:13:28.082Z,412
2017-09-09T09:14:08.524Z,392
2017-09-09T09:14:48.982Z,404
2017-09-09T09:15:29.431Z,420
2017-09-09T09:16:09.883Z,440
2017-09-09T09:16:50.428Z,440
2017-09-09T09:17:30.821Z,396
2017-09-09T09:18:11.269Z,360
2017-09-09T09:18:51.716Z,352
2017-09-09T09:19:32.169Z,336
2017-09-09T09:20:12.623Z,328
2017-09-09T09:20:53.094Z,320
2017-09-09T09:21:33.510Z,348
2017-09-09T09:22:13.963Z,396
2017-09-09T09:22:54.415Z,420
2017-09-09T09:23:34.873Z,384
2017-09-09T09:24:15.331Z,344
2017-09-09T09:24:55.783Z,324
2017-09-09T09:25:36.240Z,328
2017-09-09T09:26:16.693Z,308
2017-09-09T09:26:57.149Z,272
2017-09-09T09:27:37.593Z,264
2017-09-09T09:28:18.049Z,332
2017-09-09T09:28:58.501Z,356
2017-09-09T09:29:38.960Z,360
2017-09-09T09:30:19.417Z,404
2017-09-09T09:30:59.866Z,468
2017-09-09T09:31:40.317Z,536
2017-09-09T09:32:20.769Z,548
2017-09-09T09:33:01.225Z,548
2017-09-09T09:33:41.679Z,504
2017-09-09T09:34:22.130Z,424
2017-09-09T09:35:02.585Z,392
2017-09-09T09:35:43.043Z,392
2017-09-09T09:36:23.496Z,400
2017-09-09T09:37:03.947Z,448
2017-09-09T09:37:44.399Z,404
2017-09-09T09:38:24.845Z,364
2017-09-09T09:39:05.308Z,308
2017-09-09T09:39:45.777Z,296
2017-09-09T09:40:26.226Z,284
2017-09-09T09:41:06.675Z,284
2017-09-09T09:41:47.129Z,312
2017-09-09T09:42:27.587Z,368
2017-09-09T09:43:08.048Z,384
2017-09-09T09:43:48.504Z,376
2017-09-09T09:44:28.962Z,384
2017-09-09T09:45:09.407Z,412
2017-09-09T09:45:49.857Z,452
2017-09-09T09:46:30.319Z,508
2017-09-09T09:47:10.850Z,528
2017-09-09T09:47:51.304Z,528
2017-09-09T09:48:31.758Z,536
2017-09-09T09:49:12.202Z,548
2017-09-09T09:49:52.641Z,504
2017-09-09T09:50:33.092Z,420
2017-09-09T09:51:13.530Z,440
2017-09-09T09:51:53.980Z,524
2017-09-09T09:52:34.423Z,584
2017-09-09T09:53:14.876Z,656
2017-09-09T09:53:55.325Z,724
2017-09-09T09:54:35.781Z,776
2017-09-09T09:55:16.472Z,820
2017-09-09T09:55:56.915Z,792
2017-09-09T09:56:37.390Z,728
2017-09-09T09:57:17.830Z,640